sensor_id;sensor_type;location;lat;lon;timestamp;pressure;altitude;pressure_sealevel;temperature;humidity
11678;BME280;5895;41.950;24.372;2023-05-22T00:02:16;86667.69;;;10.93;100.00
11678;BME280;5895;41.950;24.372;2023-05-22T00:04:43;86657.31;;;10.93;100.00
11678;BME280;5895;41.950;24.372;2023-05-22T00:07:12;86658.34;;;10.92;100.00
11678;BME280;5895;41.950;24.372;2023-05-22T00:09:39;86659.38;;;10.91;100.00
11678;BME280;5895;41.950;24.372;2023-05-22T00:12:07;86657.22;;;10.88;100.00
11678;BME280;5895;41.950;24.372;2023-05-22T00:14:34;86654.31;;;10.84;100.00
11678;BME280;5895;41.950;24.372;2023-05-22T00:17:01;86648.78;;;10.81;100.00
11678;BME280;5895;41.950;24.372;2023-05-22T00:19:28;86650.06;;;10.78;100.00
11678;BME280;5895;41.950;24.372;2023-05-22T00:21:55;86649.72;;;10.75;100.00
11678;BME280;5895;41.950;24.372;2023-05-22T00:24:24;86639.25;;;10.70;100.00
11678;BME280;5895;41.950;24.372;2023-05-22T00:26:51;86641.06;;;10.69;100.00
11678;BME280;5895;41.950;24.372;2023-05-22T00:29:18;86652.69;;;10.67;100.00
11678;BME280;5895;41.950;24.372;2023-05-22T00:31:45;86645.25;;;10.58;100.00
11678;BME280;5895;41.950;24.372;2023-05-22T00:34:13;86644.94;;;10.55;100.00
11678;BME280;5895;41.950;24.372;2023-05-22T00:36:40;86644.94;;;10.55;100.00
11678;BME280;5895;41.950;24.372;2023-05-22T00:39:07;86649.31;;;10.54;100.00
11678;BME280;5895;41.950;24.372;2023-05-22T00:41:36;86643.34;;;10.54;100.00
11678;BME280;5895;41.950;24.372;2023-05-22T00:44:04;86646.72;;;10.54;100.00
11678;BME280;5895;41.950;24.372;2023-05-22T00:46:32;86648.34;;;10.55;100.00
11678;BME280;5895;41.950;24.372;2023-05-22T00:48:59;86648.34;;;10.55;100.00
11678;BME280;5895;41.950;24.372;2023-05-22T00:51:26;86651.91;;;10.54;100.00
11678;BME280;5895;41.950;24.372;2023-05-22T00:53:54;86644.13;;;10.54;100.00
11678;BME280;5895;41.950;24.372;2023-05-22T00:56:21;86641.53;;;10.54;100.00
11678;BME280;5895;41.950;24.372;2023-05-22T00:58:50;86640.56;;;10.55;100.00
11678;BME280;5895;41.950;24.372;2023-05-22T01:01:17;86641.00;;;10.52;100.00
11678;BME280;5895;41.950;24.372;2023-05-22T01:03:45;86642.72;;;10.47;100.00
11678;BME280;5895;41.950;24.372;2023-05-22T01:06:12;86644.50;;;10.46;100.00
11678;BME280;5895;41.950;24.372;2023-05-22T01:08:40;86640.34;;;10.45;100.00
11678;BME280;5895;41.950;24.372;2023-05-22T01:11:12;86634.13;;;10.46;100.00
11678;BME280;5895;41.950;24.372;2023-05-22T01:13:47;86636.72;;;10.46;100.00
11678;BME280;5895;41.950;24.372;2023-05-22T01:16:25;86635.72;;;10.47;100.00
11678;BME280;5895;41.950;24.372;2023-05-22T01:19:00;86634.69;;;10.48;100.00
11678;BME280;5895;41.950;24.372;2023-05-22T01:21:37;86640.66;;;10.49;100.00
11678;BME280;5895;41.950;24.372;2023-05-22T01:24:40;86634.69;;;10.48;100.00
11678;BME280;5895;41.950;24.372;2023-05-22T01:27:48;86634.69;;;10.48;100.00
11678;BME280;5895;41.950;24.372;2023-05-22T01:30:58;86633.13;;;10.47;100.00
11678;BME280;5895;41.950;24.372;2023-05-22T01:33:27;86625.56;;;10.46;100.00
11678;BME280;5895;41.950;24.372;2023-05-22T01:35:59;86621.16;;;10.46;100.00
11678;BME280;5895;41.950;24.372;2023-05-22T01:38:27;86619.59;;;10.45;100.00
11678;BME280;5895;41.950;24.372;2023-05-22T01:40:55;86622.09;;;10.40;100.00
11678;BME280;5895;41.950;24.372;2023-05-22T01:43:24;86622.09;;;10.40;100.00
11678;BME280;5895;41.950;24.372;2023-05-22T01:45:51;86615.00;;;10.36;100.00
11678;BME280;5895;41.950;24.372;2023-05-22T01:48:19;86623.81;;;10.35;100.00
11678;BME280;5895;41.950;24.372;2023-05-22T01:50:47;86614.75;;;10.37;100.00
11678;BME280;5895;41.950;24.372;2023-05-22T01:53:23;86619.75;;;10.39;100.00
11678;BME280;5895;41.950;24.372;2023-05-22T01:55:59;86623.31;;;10.38;100.00
11678;BME280;5895;41.950;24.372;2023-05-22T01:58:32;86615.78;;;10.36;100.00
11678;BME280;5895;41.950;24.372;2023-05-22T02:01:00;86609.81;;;10.36;100.00
11678;BME280;5895;41.950;24.372;2023-05-22T02:03:31;86615.78;;;10.36;100.00
11678;BME280;5895;41.950;24.372;2023-05-22T02:06:01;86612.16;;;10.37;100.00
11678;BME280;5895;41.950;24.372;2023-05-22T02:08:30;86613.78;;;10.38;100.00
11678;BME280;5895;41.950;24.372;2023-05-22T02:10:58;86606.97;;;10.37;100.00
11678;BME280;5895;41.950;24.372;2023-05-22T02:13:27;86608.47;;;10.33;100.00
11678;BME280;5895;41.950;24.372;2023-05-22T02:15:54;86612.66;;;10.34;100.00
11678;BME280;5895;41.950;24.372;2023-05-22T02:18:25;86612.16;;;10.37;100.00
11678;BME280;5895;41.950;24.372;2023-05-22T02:20:55;86609.13;;;10.40;100.00
11678;BME280;5895;41.950;24.372;2023-05-22T02:23:23;86613.28;;;10.41;100.00
11678;BME280;5895;41.950;24.372;2023-05-22T02:25:51;86620.84;;;10.43;100.00
11678;BME280;5895;41.950;24.372;2023-05-22T02:28:20;86617.25;;;10.44;100.00
11678;BME280;5895;41.950;24.372;2023-05-22T02:30:47;86612.06;;;10.44;100.00
11678;BME280;5895;41.950;24.372;2023-05-22T02:33:14;86612.84;;;10.44;100.00
11678;BME280;5895;41.950;24.372;2023-05-22T02:35:42;86620.63;;;10.44;100.00
11678;BME280;5895;41.950;24.372;2023-05-22T02:38:11;86618.81;;;10.45;100.00
11678;BME280;5895;41.950;24.372;2023-05-22T02:40:38;86621.16;;;10.46;100.00
11678;BME280;5895;41.950;24.372;2023-05-22T02:43:05;86620.38;;;10.46;100.00
11678;BME280;5895;41.950;24.372;2023-05-22T02:45:32;86623.75;;;10.46;100.00
11678;BME280;5895;41.950;24.372;2023-05-22T02:47:59;86619.59;;;10.45;100.00
11678;BME280;5895;41.950;24.372;2023-05-22T02:50:28;86623.22;;;10.44;100.00
11678;BME280;5895;41.950;24.372;2023-05-22T02:52:55;86626.81;;;10.43;100.00
11678;BME280;5895;41.950;24.372;2023-05-22T02:55:23;86618.03;;;10.44;100.00
11678;BME280;5895;41.950;24.372;2023-05-22T02:57:50;86612.06;;;10.44;100.00
11678;BME280;5895;41.950;24.372;2023-05-22T03:00:18;86611.03;;;10.45;100.00
11678;BME280;5895;41.950;24.372;2023-05-22T03:02:46;86607.88;;;10.43;100.00
11678;BME280;5895;41.950;24.372;2023-05-22T03:05:14;86604.50;;;10.42;100.00
11678;BME280;5895;41.950;24.372;2023-05-22T03:07:42;86606.88;;;10.44;100.00
11678;BME280;5895;41.950;24.372;2023-05-22T03:10:10;86611.25;;;10.43;100.00
11678;BME280;5895;41.950;24.372;2023-05-22T03:12:38;86612.84;;;10.44;100.00
11678;BME280;5895;41.950;24.372;2023-05-22T03:15:06;86606.06;;;10.43;100.00
11678;BME280;5895;41.950;24.372;2023-05-22T03:17:33;86612.50;;;10.41;100.00
11678;BME280;5895;41.950;24.372;2023-05-22T03:20:01;86611.72;;;10.40;100.00
11678;BME280;5895;41.950;24.372;2023-05-22T03:22:29;86609.03;;;10.35;100.00
11678;BME280;5895;41.950;24.372;2023-05-22T03:24:56;86612.75;;;10.39;100.00
11678;BME280;5895;41.950;24.372;2023-05-22T03:27:23;86608.59;;;10.38;100.00
11678;BME280;5895;41.950;24.372;2023-05-22T03:29:52;86614.22;;;10.35;100.00
11678;BME280;5895;41.950;24.372;2023-05-22T03:32:19;86616.38;;;10.38;100.00
11678;BME280;5895;41.950;24.372;2023-05-22T03:34:46;86618.13;;;10.38;100.00
11678;BME280;5895;41.950;24.372;2023-05-22T03:37:13;86618.97;;;10.38;100.00
11678;BME280;5895;41.950;24.372;2023-05-22T03:39:41;86609.47;;;10.32;100.00
11678;BME280;5895;41.950;24.372;2023-05-22T03:42:08;86617.25;;;10.32;100.00
11678;BME280;5895;41.950;24.372;2023-05-22T03:44:35;86620.44;;;10.34;100.00
11678;BME280;5895;41.950;24.372;2023-05-22T03:47:04;86617.84;;;10.34;100.00
11678;BME280;5895;41.950;24.372;2023-05-22T03:49:31;86615.78;;;10.36;100.00
11678;BME280;5895;41.950;24.372;2023-05-22T03:51:58;86611.72;;;10.40;100.00
11678;BME280;5895;41.950;24.372;2023-05-22T03:54:25;86611.47;;;10.42;100.00
11678;BME280;5895;41.950;24.372;2023-05-22T03:56:52;86608.09;;;10.41;100.00
11678;BME280;5895;41.950;24.372;2023-05-22T03:59:19;86614.41;;;10.45;100.00
11678;BME280;5895;41.950;24.372;2023-05-22T04:01:46;86613.94;;;10.48;100.00
11678;BME280;5895;41.950;24.372;2023-05-22T04:04:15;86612.47;;;10.52;100.00
11678;BME280;5895;41.950;24.372;2023-05-22T04:06:42;86621.38;;;10.56;100.00
11678;BME280;5895;41.950;24.372;2023-05-22T04:09:10;86617.28;;;10.60;100.00
11678;BME280;5895;41.950;24.372;2023-05-22T04:11:38;86618.41;;;10.65;100.00
11678;BME280;5895;41.950;24.372;2023-05-22T04:14:06;86617.94;;;10.68;100.00
11678;BME280;5895;41.950;24.372;2023-05-22T04:16:34;86614.88;;;10.71;100.00
11678;BME280;5895;41.950;24.372;2023-05-22T04:19:01;86624.56;;;10.75;100.00
11678;BME280;5895;41.950;24.372;2023-05-22T04:21:29;86616.53;;;10.77;100.00
11678;BME280;5895;41.950;24.372;2023-05-22T04:23:58;86612.47;;;10.81;100.00
11678;BME280;5895;41.950;24.372;2023-05-22T04:26:26;86627.34;;;10.85;100.00
11678;BME280;5895;41.950;24.372;2023-05-22T04:28:56;86617.50;;;10.88;100.00
11678;BME280;5895;41.950;24.372;2023-05-22T04:31:23;86620.78;;;10.83;100.00
11678;BME280;5895;41.950;24.372;2023-05-22T04:33:50;86629.84;;;10.80;100.00
11678;BME280;5895;41.950;24.372;2023-05-22T04:36:19;86624.19;;;10.83;100.00
11678;BME280;5895;41.950;24.372;2023-05-22T04:38:48;86628.75;;;10.93;100.00
11678;BME280;5895;41.950;24.372;2023-05-22T04:41:15;86633.59;;;11.01;100.00
11678;BME280;5895;41.950;24.372;2023-05-22T04:43:43;86631.53;;;11.03;100.00
11678;BME280;5895;41.950;24.372;2023-05-22T04:46:12;86623.75;;;11.03;100.00
11678;BME280;5895;41.950;24.372;2023-05-22T04:48:39;86623.28;;;11.06;100.00
11678;BME280;5895;41.950;24.372;2023-05-22T04:51:07;86626.97;;;11.10;100.00
11678;BME280;5895;41.950;24.372;2023-05-22T04:53:34;86621.41;;;11.19;100.00
11678;BME280;5895;41.950;24.372;2023-05-22T04:56:05;86629.50;;;11.22;100.00
11678;BME280;5895;41.950;24.372;2023-05-22T04:58:32;86628.72;;;11.22;100.00
11678;BME280;5895;41.950;24.372;2023-05-22T05:01:02;86631.13;;;11.23;100.00
11678;BME280;5895;41.950;24.372;2023-05-22T05:03:30;86637.09;;;11.24;100.00
11678;BME280;5895;41.950;24.372;2023-05-22T05:05:57;86626.69;;;11.24;100.00
11678;BME280;5895;41.950;24.372;2023-05-22T05:08:25;86639.44;;;11.25;100.00
11678;BME280;5895;41.950;24.372;2023-05-22T05:10:52;86634.78;;;11.27;100.00
11678;BME280;5895;41.950;24.372;2023-05-22T05:13:20;86636.59;;;11.27;100.00
11678;BME280;5895;41.950;24.372;2023-05-22T05:15:47;86641.59;;;11.28;100.00
11678;BME280;5895;41.950;24.372;2023-05-22T05:18:14;86639.78;;;11.29;100.00
11678;BME280;5895;41.950;24.372;2023-05-22T05:20:44;86638.16;;;11.28;100.00
11678;BME280;5895;41.950;24.372;2023-05-22T05:23:11;86639.44;;;11.25;100.00
11678;BME280;5895;41.950;24.372;2023-05-22T05:25:38;86649.75;;;11.20;100.00
11678;BME280;5895;41.950;24.372;2023-05-22T05:28:05;86650.78;;;11.19;100.00
11678;BME280;5895;41.950;24.372;2023-05-22T05:30:37;86646.81;;;11.17;100.00
11678;BME280;5895;41.950;24.372;2023-05-22T05:33:05;86649.19;;;11.18;100.00
11678;BME280;5895;41.950;24.372;2023-05-22T05:35:32;86647.78;;;11.27;100.00
11678;BME280;5895;41.950;24.372;2023-05-22T05:37:59;86651.34;;;11.38;100.00
11678;BME280;5895;41.950;24.372;2023-05-22T05:40:27;86640.56;;;11.46;100.00
11678;BME280;5895;41.950;24.372;2023-05-22T05:42:54;86645.94;;;11.56;99.54
11678;BME280;5895;41.950;24.372;2023-05-22T05:45:21;86652.22;;;11.60;99.16
11678;BME280;5895;41.950;24.372;2023-05-22T05:47:50;86650.63;;;11.59;97.71
11678;BME280;5895;41.950;24.372;2023-05-22T05:50:17;86652.78;;;11.62;98.11
11678;BME280;5895;41.950;24.372;2023-05-22T05:52:44;86654.88;;;11.65;97.27
11678;BME280;5895;41.950;24.372;2023-05-22T05:55:11;86647.50;;;11.74;98.30
11678;BME280;5895;41.950;24.372;2023-05-22T05:57:39;86666.09;;;11.83;97.22
11678;BME280;5895;41.950;24.372;2023-05-22T06:00:07;86662.88;;;11.93;97.73
11678;BME280;5895;41.950;24.372;2023-05-22T06:02:36;86661.34;;;12.13;96.18
11678;BME280;5895;41.950;24.372;2023-05-22T06:05:05;86659.31;;;12.37;93.50
11678;BME280;5895;41.950;24.372;2023-05-22T06:07:33;86660.31;;;12.53;94.68
11678;BME280;5895;41.950;24.372;2023-05-22T06:10:04;86657.78;;;12.58;94.00
11678;BME280;5895;41.950;24.372;2023-05-22T06:12:31;86653.53;;;12.52;92.59
11678;BME280;5895;41.950;24.372;2023-05-22T06:14:58;86657.66;;;12.48;92.78
11678;BME280;5895;41.950;24.372;2023-05-22T06:17:25;86656.53;;;12.44;93.35
11678;BME280;5895;41.950;24.372;2023-05-22T06:19:53;86658.59;;;12.42;93.93
11678;BME280;5895;41.950;24.372;2023-05-22T06:22:21;86667.44;;;12.41;93.45
11678;BME280;5895;41.950;24.372;2023-05-22T06:24:50;86667.44;;;12.41;93.85
11678;BME280;5895;41.950;24.372;2023-05-22T06:27:19;86662.78;;;12.43;94.31
11678;BME280;5895;41.950;24.372;2023-05-22T06:29:47;86669.63;;;12.49;95.18
11678;BME280;5895;41.950;24.372;2023-05-22T06:32:14;86668.53;;;12.45;92.74
11678;BME280;5895;41.950;24.372;2023-05-22T06:34:42;86664.41;;;12.49;94.44
11678;BME280;5895;41.950;24.372;2023-05-22T06:37:10;86676.91;;;12.47;93.91
11678;BME280;5895;41.950;24.372;2023-05-22T06:39:39;86677.28;;;12.39;94.52
11678;BME280;5895;41.950;24.372;2023-05-22T06:42:06;86673.63;;;12.35;94.25
11678;BME280;5895;41.950;24.372;2023-05-22T06:44:33;86679.72;;;12.24;93.90
11678;BME280;5895;41.950;24.372;2023-05-22T06:47:00;86679.00;;;12.11;92.25
11678;BME280;5895;41.950;24.372;2023-05-22T06:49:28;86683.13;;;12.07;94.05
11678;BME280;5895;41.950;24.372;2023-05-22T06:51:55;86689.41;;;12.11;96.22
11678;BME280;5895;41.950;24.372;2023-05-22T06:54:22;86692.56;;;12.13;95.05
11678;BME280;5895;41.950;24.372;2023-05-22T06:56:54;86685.94;;;12.06;96.05
11678;BME280;5895;41.950;24.372;2023-05-22T06:59:21;86685.63;;;12.02;97.21
11678;BME280;5895;41.950;24.372;2023-05-22T07:01:48;86694.16;;;11.98;97.68
11678;BME280;5895;41.950;24.372;2023-05-22T07:04:15;86695.38;;;11.95;97.95
11678;BME280;5895;41.950;24.372;2023-05-22T07:06:43;86697.38;;;11.88;97.78
11678;BME280;5895;41.950;24.372;2023-05-22T07:09:10;86695.94;;;11.80;98.52
11678;BME280;5895;41.950;24.372;2023-05-22T07:11:37;86695.72;;;11.82;99.10
11678;BME280;5895;41.950;24.372;2023-05-22T07:14:05;86694.13;;;11.81;99.36
11678;BME280;5895;41.950;24.372;2023-05-22T07:16:33;86696.19;;;11.79;99.41
11678;BME280;5895;41.950;24.372;2023-05-22T07:19:01;86693.41;;;11.69;99.72
11678;BME280;5895;41.950;24.372;2023-05-22T07:21:28;86691.03;;;11.67;99.19
11678;BME280;5895;41.950;24.372;2023-05-22T07:23:56;86693.94;;;11.71;98.62
11678;BME280;5895;41.950;24.372;2023-05-22T07:26:23;86694.56;;;11.78;98.77
11678;BME280;5895;41.950;24.372;2023-05-22T07:28:51;86695.38;;;11.78;98.42
11678;BME280;5895;41.950;24.372;2023-05-22T07:31:19;86698.84;;;11.84;98.15
11678;BME280;5895;41.950;24.372;2023-05-22T07:33:47;86690.50;;;12.15;97.04
11678;BME280;5895;41.950;24.372;2023-05-22T07:36:14;86695.66;;;12.49;95.72
11678;BME280;5895;41.950;24.372;2023-05-22T07:38:42;86693.19;;;12.81;94.35
11678;BME280;5895;41.950;24.372;2023-05-22T07:41:09;86691.00;;;12.95;94.58
11678;BME280;5895;41.950;24.372;2023-05-22T07:43:36;86694.44;;;13.01;94.16
11678;BME280;5895;41.950;24.372;2023-05-22T07:46:04;86680.44;;;12.80;93.45
11678;BME280;5895;41.950;24.372;2023-05-22T07:48:32;86695.47;;;12.78;95.32
11678;BME280;5895;41.950;24.372;2023-05-22T07:51:00;86702.31;;;12.84;94.82
11678;BME280;5895;41.950;24.372;2023-05-22T07:53:28;86692.69;;;12.84;94.15
11678;BME280;5895;41.950;24.372;2023-05-22T07:55:55;86698.16;;;12.83;94.97
11678;BME280;5895;41.950;24.372;2023-05-22T07:58:22;86698.47;;;12.86;95.36
11678;BME280;5895;41.950;24.372;2023-05-22T08:00:49;86695.13;;;12.69;94.95
11678;BME280;5895;41.950;24.372;2023-05-22T08:03:17;86698.81;;;12.73;96.73
11678;BME280;5895;41.950;24.372;2023-05-22T08:05:45;86685.13;;;12.83;95.47
11678;BME280;5895;41.950;24.372;2023-05-22T08:08:12;86697.47;;;12.70;96.06
11678;BME280;5895;41.950;24.372;2023-05-22T08:10:39;86703.47;;;12.71;96.78
11678;BME280;5895;41.950;24.372;2023-05-22T08:13:06;86703.47;;;12.71;97.23
11678;BME280;5895;41.950;24.372;2023-05-22T08:15:34;86703.66;;;12.64;96.73
11678;BME280;5895;41.950;24.372;2023-05-22T08:18:01;86703.59;;;12.81;97.40
11678;BME280;5895;41.950;24.372;2023-05-22T08:20:28;86698.16;;;12.83;96.46
11678;BME280;5895;41.950;24.372;2023-05-22T08:22:57;86710.19;;;12.89;96.00
11678;BME280;5895;41.950;24.372;2023-05-22T08:25:24;86706.69;;;13.00;96.39
11678;BME280;5895;41.950;24.372;2023-05-22T08:27:51;86710.44;;;13.09;96.38
11678;BME280;5895;41.950;24.372;2023-05-22T08:30:18;86702.03;;;13.24;95.28
11678;BME280;5895;41.950;24.372;2023-05-22T08:32:45;86708.66;;;13.32;94.69
11678;BME280;5895;41.950;24.372;2023-05-22T08:35:12;86706.00;;;13.54;95.15
11678;BME280;5895;41.950;24.372;2023-05-22T08:37:40;86700.97;;;13.74;95.16
11678;BME280;5895;41.950;24.372;2023-05-22T08:40:10;86705.47;;;13.84;94.71
11678;BME280;5895;41.950;24.372;2023-05-22T08:42:38;86702.50;;;14.02;93.96
11678;BME280;5895;41.950;24.372;2023-05-22T08:45:06;86700.97;;;14.06;94.34
11678;BME280;5895;41.950;24.372;2023-05-22T08:47:36;86694.63;;;13.97;94.13
11678;BME280;5895;41.950;24.372;2023-05-22T08:50:04;86696.72;;;13.95;94.85
11678;BME280;5895;41.950;24.372;2023-05-22T08:52:35;86695.72;;;14.01;95.11
11678;BME280;5895;41.950;24.372;2023-05-22T08:55:04;86695.59;;;14.18;95.64
11678;BME280;5895;41.950;24.372;2023-05-22T08:57:35;86702.97;;;14.26;94.65
11678;BME280;5895;41.950;24.372;2023-05-22T09:00:02;86706.97;;;14.39;93.46
11678;BME280;5895;41.950;24.372;2023-05-22T09:02:30;86696.53;;;14.39;93.15
11678;BME280;5895;41.950;24.372;2023-05-22T09:04:58;86696.97;;;14.25;92.73
11678;BME280;5895;41.950;24.372;2023-05-22T09:07:26;86700.53;;;14.14;93.59
11678;BME280;5895;41.950;24.372;2023-05-22T09:09:55;86698.78;;;14.30;94.08
11678;BME280;5895;41.950;24.372;2023-05-22T09:12:24;86696.41;;;14.55;91.92
11678;BME280;5895;41.950;24.372;2023-05-22T09:14:53;86688.59;;;14.61;92.30
11678;BME280;5895;41.950;24.372;2023-05-22T09:17:25;86689.75;;;14.85;92.26
11678;BME280;5895;41.950;24.372;2023-05-22T09:19:52;86693.22;;;14.96;92.67
11678;BME280;5895;41.950;24.372;2023-05-22T09:22:19;86701.00;;;14.86;91.22
11678;BME280;5895;41.950;24.372;2023-05-22T09:24:46;86691.75;;;14.68;90.94
11678;BME280;5895;41.950;24.372;2023-05-22T09:27:13;86698.19;;;14.50;91.50
11678;BME280;5895;41.950;24.372;2023-05-22T09:29:46;86698.34;;;14.38;90.59
11678;BME280;5895;41.950;24.372;2023-05-22T09:32:18;86698.59;;;14.37;92.96
11678;BME280;5895;41.950;24.372;2023-05-22T09:34:46;86702.75;;;14.33;93.34
11678;BME280;5895;41.950;24.372;2023-05-22T09:37:13;86701.91;;;14.27;93.73
11678;BME280;5895;41.950;24.372;2023-05-22T09:39:42;86706.81;;;14.18;93.08
11678;BME280;5895;41.950;24.372;2023-05-22T09:42:11;86705.66;;;14.04;92.41
11678;BME280;5895;41.950;24.372;2023-05-22T09:44:39;86712.66;;;13.98;91.71
11678;BME280;5895;41.950;24.372;2023-05-22T09:47:08;86708.22;;;13.99;90.06
11678;BME280;5895;41.950;24.372;2023-05-22T09:49:40;86707.22;;;14.05;85.61
11678;BME280;5895;41.950;24.372;2023-05-22T09:52:08;86709.41;;;14.18;89.51
11678;BME280;5895;41.950;24.372;2023-05-22T09:54:40;86712.88;;;14.29;88.89
11678;BME280;5895;41.950;24.372;2023-05-22T09:57:12;86705.34;;;14.33;85.70
11678;BME280;5895;41.950;24.372;2023-05-22T09:59:43;86701.19;;;14.32;88.08
11678;BME280;5895;41.950;24.372;2023-05-22T10:02:17;86707.97;;;14.33;87.59
11678;BME280;5895;41.950;24.372;2023-05-22T10:04:47;86706.19;;;14.38;86.21
11678;BME280;5895;41.950;24.372;2023-05-22T10:07:17;86703.53;;;14.75;85.29
11678;BME280;5895;41.950;24.372;2023-05-22T10:09:47;86701.56;;;14.93;85.72
11678;BME280;5895;41.950;24.372;2023-05-22T10:12:20;86706.78;;;14.93;84.18
11678;BME280;5895;41.950;24.372;2023-05-22T10:14:49;86708.38;;;14.94;85.13
11678;BME280;5895;41.950;24.372;2023-05-22T10:17:17;86710.88;;;14.78;84.04
11678;BME280;5895;41.950;24.372;2023-05-22T10:19:47;86711.84;;;14.62;83.95
11678;BME280;5895;41.950;24.372;2023-05-22T10:22:15;86709.34;;;14.45;84.38
11678;BME280;5895;41.950;24.372;2023-05-22T10:24:46;86706.75;;;14.45;83.19
11678;BME280;5895;41.950;24.372;2023-05-22T10:27:14;86700.72;;;14.45;84.68
11678;BME280;5895;41.950;24.372;2023-05-22T10:29:46;86700.81;;;14.50;83.47
11678;BME280;5895;41.950;24.372;2023-05-22T10:32:20;86700.31;;;14.58;85.22
11678;BME280;5895;41.950;24.372;2023-05-22T10:34:58;86701.91;;;14.64;83.29
11678;BME280;5895;41.950;24.372;2023-05-22T10:37:41;86708.97;;;14.64;82.78
11678;BME280;5895;41.950;24.372;2023-05-22T10:40:12;86700.94;;;14.70;84.61
11678;BME280;5895;41.950;24.372;2023-05-22T10:42:42;86697.44;;;15.07;84.20
11678;BME280;5895;41.950;24.372;2023-05-22T10:45:09;86700.63;;;15.19;83.76
11678;BME280;5895;41.950;24.372;2023-05-22T10:47:37;86700.94;;;15.33;83.43
11678;BME280;5895;41.950;24.372;2023-05-22T10:50:09;86692.88;;;15.45;80.31
11678;BME280;5895;41.950;24.372;2023-05-22T10:52:37;86688.69;;;15.54;82.60
11678;BME280;5895;41.950;24.372;2023-05-22T10:55:06;86691.88;;;15.61;82.11
11678;BME280;5895;41.950;24.372;2023-05-22T10:57:36;86683.03;;;15.67;76.83
11678;BME280;5895;41.950;24.372;2023-05-22T11:00:09;86680.41;;;15.67;79.08
11678;BME280;5895;41.950;24.372;2023-05-22T11:02:40;86685.13;;;15.80;81.19
11678;BME280;5895;41.950;24.372;2023-05-22T11:05:33;86684.09;;;15.97;76.33
11678;BME280;5895;41.950;24.372;2023-05-22T11:11:12;86672.59;;;16.23;81.44
11678;BME280;5895;41.950;24.372;2023-05-22T11:13:39;86683.31;;;16.27;80.60
11678;BME280;5895;41.950;24.372;2023-05-22T11:16:09;86685.16;;;16.06;80.23
11678;BME280;5895;41.950;24.372;2023-05-22T11:18:37;86677.81;;;16.03;80.99
11678;BME280;5895;41.950;24.372;2023-05-22T11:21:08;86679.66;;;15.97;78.98
11678;BME280;5895;41.950;24.372;2023-05-22T11:23:36;86678.34;;;15.95;80.71
11678;BME280;5895;41.950;24.372;2023-05-22T11:26:20;86678.88;;;15.97;75.12
11678;BME280;5895;41.950;24.372;2023-05-22T11:28:50;86675.19;;;15.98;80.38
11678;BME280;5895;41.950;24.372;2023-05-22T11:31:18;86673.66;;;16.17;80.80
11678;BME280;5895;41.950;24.372;2023-05-22T11:33:48;86666.84;;;16.36;78.69
11678;BME280;5895;41.950;24.372;2023-05-22T11:36:17;86671.78;;;16.63;78.63
11678;BME280;5895;41.950;24.372;2023-05-22T11:38:44;86669.44;;;16.67;77.26
11678;BME280;5895;41.950;24.372;2023-05-22T11:41:11;86671.50;;;16.70;77.53
11678;BME280;5895;41.950;24.372;2023-05-22T11:43:41;86669.13;;;16.89;72.18
11678;BME280;5895;41.950;24.372;2023-05-22T11:46:09;86680.34;;;17.10;76.16
11678;BME280;5895;41.950;24.372;2023-05-22T11:48:39;86679.78;;;17.23;76.31
11678;BME280;5895;41.950;24.372;2023-05-22T11:51:08;86682.63;;;17.32;77.31
11678;BME280;5895;41.950;24.372;2023-05-22T11:53:36;86679.16;;;17.47;74.32
11678;BME280;5895;41.950;24.372;2023-05-22T11:56:04;86679.16;;;17.47;75.26
11678;BME280;5895;41.950;24.372;2023-05-22T11:58:31;86678.69;;;17.34;76.55
11678;BME280;5895;41.950;24.372;2023-05-22T12:01:02;86690.81;;;17.20;74.02
11678;BME280;5895;41.950;24.372;2023-05-22T12:03:30;86689.25;;;17.09;78.08
11678;BME280;5895;41.950;24.372;2023-05-22T12:05:58;86680.63;;;17.03;79.18
11678;BME280;5895;41.950;24.372;2023-05-22T12:08:25;86665.69;;;17.04;77.89
11678;BME280;5895;41.950;24.372;2023-05-22T12:10:54;86674.47;;;17.38;77.08
11678;BME280;5895;41.950;24.372;2023-05-22T12:13:25;86676.75;;;17.55;74.05
11678;BME280;5895;41.950;24.372;2023-05-22T12:15:54;86673.91;;;17.52;76.24
11678;BME280;5895;41.950;24.372;2023-05-22T12:18:21;86671.09;;;17.28;76.87
11678;BME280;5895;41.950;24.372;2023-05-22T12:20:51;86672.00;;;16.98;75.49
11678;BME280;5895;41.950;24.372;2023-05-22T12:23:21;86670.47;;;16.76;78.07
11678;BME280;5895;41.950;24.372;2023-05-22T12:25:56;86674.66;;;16.62;69.19
11678;BME280;5895;41.950;24.372;2023-05-22T12:28:24;86673.13;;;16.51;77.49
11678;BME280;5895;41.950;24.372;2023-05-22T12:30:52;86680.44;;;16.54;78.39
11678;BME280;5895;41.950;24.372;2023-05-22T12:33:25;86673.13;;;16.51;76.45
11678;BME280;5895;41.950;24.372;2023-05-22T12:35:52;86660.03;;;16.30;79.29
11678;BME280;5895;41.950;24.372;2023-05-22T12:38:20;86668.66;;;16.16;79.20
11678;BME280;5895;41.950;24.372;2023-05-22T12:40:47;86665.25;;;16.05;79.01
11678;BME280;5895;41.950;24.372;2023-05-22T12:43:16;86656.88;;;15.93;78.88
11678;BME280;5895;41.950;24.372;2023-05-22T12:45:44;86660.00;;;15.74;79.85
11678;BME280;5895;41.950;24.372;2023-05-22T12:48:11;86664.94;;;15.60;78.94
11678;BME280;5895;41.950;24.372;2023-05-22T12:50:38;86662.03;;;15.57;79.73
11678;BME280;5895;41.950;24.372;2023-05-22T12:53:06;86668.81;;;15.48;79.38
11678;BME280;5895;41.950;24.372;2023-05-22T12:55:33;86670.91;;;15.41;79.82
11678;BME280;5895;41.950;24.372;2023-05-22T12:58:00;86662.25;;;15.35;80.46
11678;BME280;5895;41.950;24.372;2023-05-22T13:00:29;86656.75;;;15.31;80.51
11678;BME280;5895;41.950;24.372;2023-05-22T13:02:56;86657.00;;;15.30;80.80
11678;BME280;5895;41.950;24.372;2023-05-22T13:05:23;86657.81;;;15.35;81.73
11678;BME280;5895;41.950;24.372;2023-05-22T13:07:51;86662.56;;;15.49;83.19